Time;durP1;ratioP1;P1;durP2;ratioP2;P2;SDS_P1;SDS_P2;PMS_P1;PMS_P2;Temp;Humidity;BMP_temperature;BMP_pressure;BME280_temperature;BME280_humidity;BME280_pressure;Samples;Min_cycle;Max_cycle;Signal;HPM_P1;HPM_P2
2023/10/25 00:04:25;;;;;;;21.80;12.40;;;;;;;15.46;81.37;97425.30;234313;215;147595;-57
2023/10/25 00:09:28;;;;;;;25.10;14.10;;;;;;;15.46;81.65;97414.82;234523;214;140080;-58
2023/10/25 00:14:31;;;;;;;25.30;14.10;;;;;;;15.47;81.63;97404.13;234351;214;137005;-58
2023/10/25 00:19:35;;;;;;;24.40;14.70;;;;;;;15.47;81.75;97385.56;234578;214;148497;-58
2023/10/25 00:24:38;;;;;;;22.50;12.70;;;;;;;15.44;81.79;97380.58;233946;215;139110;-58
2023/10/25 00:29:41;;;;;;;22.60;12.40;;;;;;;15.44;81.90;97363.34;234531;215;138613;-57
2023/10/25 00:34:45;;;;;;;27.90;12.40;;;;;;;15.48;81.91;97349.87;234292;215;147984;-58
2023/10/25 00:39:48;;;;;;;23.60;12.90;;;;;;;15.53;81.95;97339.73;234647;214;139183;-59
2023/10/25 00:44:52;;;;;;;23.30;11.70;;;;;;;15.58;81.99;97336.57;234612;214;138375;-58
2023/10/25 00:49:55;;;;;;;23.00;11.40;;;;;;;15.54;82.04;97336.30;234468;215;148028;-58
2023/10/25 00:54:59;;;;;;;19.00;9.60;;;;;;;15.54;82.01;97334.38;234256;215;139284;-58
2023/10/25 01:00:03;;;;;;;14.00;8.40;;;;;;;15.56;82.03;97330.20;234520;214;138528;-58
2023/10/25 01:05:06;;;;;;;16.10;7.10;;;;;;;15.62;82.09;97316.15;234458;214;153764;-59
2023/10/25 01:10:10;;;;;;;12.20;6.50;;;;;;;15.61;81.97;97311.83;233931;214;140562;-59
2023/10/25 01:15:13;;;;;;;8.10;4.80;;;;;;;15.58;81.97;97304.41;234355;214;137255;-58
2023/10/25 01:20:18;;;;;;;10.40;4.50;;;;;;;15.56;82.00;97291.66;234350;215;147702;-58
2023/10/25 01:25:22;;;;;;;9.50;5.10;;;;;;;15.59;82.14;97281.30;234121;214;138867;-58
2023/10/25 01:30:25;;;;;;;8.80;5.00;;;;;;;15.62;82.02;97283.64;234265;215;138919;-59
2023/10/25 01:35:28;;;;;;;10.00;5.00;;;;;;;15.63;81.93;97269.73;234062;215;150607;-57
2023/10/25 01:40:32;;;;;;;9.70;4.30;;;;;;;15.60;81.82;97267.08;234474;214;139470;-57
2023/10/25 01:45:35;;;;;;;10.00;5.40;;;;;;;15.56;81.92;97264.02;233857;214;138546;-58
2023/10/25 01:50:38;;;;;;;13.70;6.10;;;;;;;15.53;82.15;97264.38;234495;214;150365;-58
2023/10/25 01:55:41;;;;;;;10.80;6.30;;;;;;;15.51;82.26;97261.29;234526;214;139091;-58
2023/10/25 02:00:44;;;;;;;16.50;7.70;;;;;;;15.50;82.23;97260.98;234496;214;138072;-58
2023/10/25 02:05:48;;;;;;;15.10;7.80;;;;;;;15.51;82.48;97257.51;234627;214;149190;-58
2023/10/25 02:10:51;;;;;;;17.40;9.40;;;;;;;15.50;82.48;97248.65;234524;214;139614;-58
2023/10/25 02:15:54;;;;;;;15.20;9.60;;;;;;;15.54;82.47;97245.34;234488;215;138536;-56
2023/10/25 02:20:57;;;;;;;17.70;11.40;;;;;;;15.60;82.57;97242.00;234555;214;149895;-57
2023/10/25 02:26:01;;;;;;;18.40;10.80;;;;;;;15.68;82.46;97240.84;234400;214;141043;-58
2023/10/25 02:31:04;;;;;;;15.10;9.00;;;;;;;15.66;82.11;97244.08;234473;215;138177;-56
2023/10/25 02:36:07;;;;;;;19.40;10.60;;;;;;;15.64;82.27;97243.24;234614;215;149524;-55
2023/10/25 02:41:10;;;;;;;22.00;11.50;;;;;;;15.65;82.32;97239.16;234422;215;138719;-58
2023/10/25 02:46:13;;;;;;;20.00;12.20;;;;;;;15.67;82.30;97241.48;234341;215;139050;-58
2023/10/25 02:51:17;;;;;;;20.60;11.60;;;;;;;15.61;82.29;97233.56;234208;215;150558;-56
2023/10/25 02:56:20;;;;;;;16.10;10.30;;;;;;;15.57;82.60;97228.40;234401;214;138482;-56
2023/10/25 03:01:24;;;;;;;17.30;9.50;;;;;;;15.56;82.61;97229.02;234225;214;138337;-56
2023/10/25 03:06:27;;;;;;;16.60;8.70;;;;;;;15.59;82.78;97225.81;234433;215;149521;-57
2023/10/25 03:11:30;;;;;;;13.30;9.30;;;;;;;15.63;82.78;97227.09;234625;214;138998;-57
2023/10/25 03:16:33;;;;;;;15.50;9.30;;;;;;;15.64;82.63;97227.66;234588;214;139096;-56
2023/10/25 03:21:36;;;;;;;14.10;8.00;;;;;;;15.63;82.67;97228.86;234477;215;150858;-57
2023/10/25 03:26:41;;;;;;;14.00;8.00;;;;;;;15.65;82.79;97223.83;234423;215;139011;-58
2023/10/25 03:31:44;;;;;;;14.00;8.10;;;;;;;15.67;82.74;97225.23;233869;215;139930;-56
2023/10/25 03:36:48;;;;;;;14.10;7.80;;;;;;;15.68;82.75;97225.57;234362;214;150033;-58
2023/10/25 03:41:51;;;;;;;14.10;8.10;;;;;;;15.66;82.62;97222.80;233993;215;139958;-57
2023/10/25 03:46:54;;;;;;;10.60;6.60;;;;;;;15.63;82.70;97217.23;234671;214;137953;-57
2023/10/25 03:51:58;;;;;;;14.40;6.80;;;;;;;15.61;82.77;97215.02;234630;214;149815;-56
2023/10/25 03:57:01;;;;;;;12.60;7.30;;;;;;;15.64;82.85;97217.30;234435;215;139815;-58
2023/10/25 04:02:04;;;;;;;193.20;166.20;;;;;;;15.69;83.41;97217.92;234382;214;137258;-57
2023/10/25 04:07:11;;;;;;;156.30;123.70;;;;;;;15.77;83.30;97216.89;234559;214;149947;-58
2023/10/25 04:12:15;;;;;;;103.70;88.50;;;;;;;15.74;83.15;97215.23;234577;215;138665;-60
2023/10/25 04:17:18;;;;;;;59.10;49.90;;;;;;;15.75;82.99;97217.96;234618;214;140042;-62
2023/10/25 04:22:21;;;;;;;11.50;6.80;;;;;;;15.88;83.45;97218.70;234342;214;150123;-57
2023/10/25 04:27:25;;;;;;;14.80;7.00;;;;;;;15.94;82.50;97221.92;234116;214;140063;-57
2023/10/25 04:32:28;;;;;;;10.80;7.10;;;;;;;15.92;82.23;97223.10;234497;214;137238;-58
2023/10/25 04:37:31;;;;;;;15.10;7.40;;;;;;;15.85;82.21;97220.27;234193;215;149885;-58
2023/10/25 04:42:34;;;;;;;253.10;198.00;;;;;;;15.81;82.32;97220.36;234487;214;139684;-57
2023/10/25 04:47:38;;;;;;;15.80;9.10;;;;;;;15.83;82.66;97219.75;234589;215;138267;-58
2023/10/25 04:52:41;;;;;;;14.00;7.40;;;;;;;15.88;82.69;97221.55;234484;215;150058;-57
2023/10/25 04:57:44;;;;;;;90.50;74.70;;;;;;;15.88;82.69;97231.23;234494;215;140359;-58
2023/10/25 05:02:48;;;;;;;11.20;7.20;;;;;;;15.88;82.53;97235.59;234185;214;137327;-57
2023/10/25 05:07:51;;;;;;;11.20;5.90;;;;;;;15.81;82.41;97236.99;233823;214;149243;-57
2023/10/25 05:12:55;;;;;;;9.10;5.40;;;;;;;15.81;82.45;97238.27;234309;214;139272;-56
2023/10/25 05:17:59;;;;;;;10.30;6.20;;;;;;;15.82;82.43;97247.01;234356;214;138143;-57
2023/10/25 05:23:03;;;;;;;78.60;67.10;;;;;;;15.87;82.26;97249.78;234324;215;149965;-59
2023/10/25 05:28:07;;;;;;;12.80;7.20;;;;;;;15.84;82.22;97253.65;234343;214;139038;-56
2023/10/25 05:33:14;;;;;;;9.70;6.60;;;;;;;15.75;82.13;97262.89;233847;215;138422;-58
2023/10/25 05:38:17;;;;;;;12.60;7.30;;;;;;;15.68;82.27;97276.59;234120;215;150306;-59
2023/10/25 05:43:27;;;;;;;12.00;7.30;;;;;;;15.67;82.44;97285.45;233995;215;138900;-56
2023/10/25 05:48:31;;;;;;;13.80;8.00;;;;;;;15.70;82.36;97293.88;234438;215;138152;-58
2023/10/25 05:53:34;;;;;;;13.80;8.30;;;;;;;15.73;82.26;97304.63;234580;215;149583;-58
2023/10/25 05:58:38;;;;;;;13.20;7.80;;;;;;;15.70;81.93;97312.29;234430;215;138893;-59
2023/10/25 06:03:45;;;;;;;13.40;7.70;;;;;;;15.65;81.90;97321.90;234490;215;140479;-56
2023/10/25 06:08:49;;;;;;;13.40;8.10;;;;;;;15.64;81.95;97326.38;234215;215;148543;-59
2023/10/25 06:13:53;;;;;;;13.00;9.40;;;;;;;15.67;81.67;97334.67;233812;214;139197;-60
2023/10/25 06:18:56;;;;;;;36.90;32.70;;;;;;;15.61;81.24;97336.80;234226;215;138588;-61
2023/10/25 06:23:59;;;;;;;11.20;8.30;;;;;;;15.55;81.35;97340.31;234631;215;149392;-59
2023/10/25 06:29:03;;;;;;;13.90;8.80;;;;;;;15.48;81.27;97338.40;234398;214;152607;-60
2023/10/25 06:34:06;;;;;;;13.40;10.20;;;;;;;15.49;81.07;97345.11;234468;215;139316;-60
2023/10/25 06:39:13;;;;;;;16.60;11.00;;;;;;;15.53;81.03;97346.48;234450;215;149862;-60
2023/10/25 06:44:16;;;;;;;13.40;10.90;;;;;;;15.54;80.85;97356.17;233833;214;138655;-60
2023/10/25 06:49:20;;;;;;;11.90;10.00;;;;;;;15.42;80.77;97356.08;234552;214;138484;-61
2023/10/25 06:54:23;;;;;;;71.20;58.40;;;;;;;15.35;81.03;97368.39;234376;215;150248;-63
2023/10/25 06:59:27;;;;;;;16.40;11.30;;;;;;;15.38;81.23;97375.08;234500;215;139323;-61
2023/10/25 07:04:33;;;;;;;15.90;12.20;;;;;;;15.39;81.29;97376.74;234386;215;138307;-62
2023/10/25 07:09:36;;;;;;;14.20;11.00;;;;;;;15.39;81.52;97383.95;234382;215;150534;-63
2023/10/25 07:14:39;;;;;;;13.60;9.50;;;;;;;15.32;81.44;97392.89;234301;214;139811;-61
2023/10/25 07:19:46;;;;;;;10.20;7.80;;;;;;;15.26;81.65;97405.22;234188;214;138773;-64
2023/10/25 07:24:49;;;;;;;11.90;8.70;;;;;;;15.25;81.70;97407.24;234550;214;149678;-63
2023/10/25 07:29:52;;;;;;;10.00;7.40;;;;;;;15.27;81.84;97408.13;234124;214;139494;-65
2023/10/25 07:34:55;;;;;;;9.20;7.90;;;;;;;15.30;81.77;97411.02;234468;215;139950;-62
2023/10/25 07:39:58;;;;;;;9.20;6.30;;;;;;;15.30;81.63;97416.48;234412;214;149415;-62
2023/10/25 07:45:03;;;;;;;6.60;5.00;;;;;;;15.30;81.28;97423.87;233785;215;140066;-61
2023/10/25 07:50:07;;;;;;;7.30;4.50;;;;;;;15.28;81.09;97424.45;234188;215;137902;-61
2023/10/25 07:55:11;;;;;;;8.70;5.80;;;;;;;15.24;81.11;97423.29;234510;215;149659;-61
2023/10/25 08:00:34;;;;;;;8.90;6.00;;;;;;;15.20;80.92;97425.12;234572;214;138899;-60
2023/10/25 08:05:37;;;;;;;7.30;5.80;;;;;;;15.15;80.83;97415.47;234335;214;138976;-60
2023/10/25 08:10:40;;;;;;;9.90;6.00;;;;;;;15.10;80.74;97419.00;234502;214;149750;-60
2023/10/25 08:15:44;;;;;;;12.90;7.40;;;;;;;15.10;80.70;97423.49;234528;214;138652;-61
2023/10/25 08:20:48;;;;;;;15.20;8.70;;;;;;;15.11;80.65;97430.36;233887;214;139280;-59
2023/10/25 08:25:52;;;;;;;12.60;9.30;;;;;;;15.11;80.49;97431.58;234309;214;150854;-62
2023/10/25 08:30:55;;;;;;;14.90;9.30;;;;;;;15.09;80.72;97435.89;234484;214;138745;-61
2023/10/25 08:36:03;;;;;;;13.50;8.80;;;;;;;15.11;80.38;97444.48;234571;214;139126;-62
2023/10/25 08:41:07;;;;;;;13.80;9.70;;;;;;;15.08;80.11;97450.15;234180;215;150958;-61
2023/10/25 08:46:13;;;;;;;15.50;10.40;;;;;;;15.05;80.11;97455.98;234289;215;139950;-60
2023/10/25 08:51:16;;;;;;;19.50;10.80;;;;;;;15.02;79.94;97459.36;234435;215;138613;-61
2023/10/25 08:56:19;;;;;;;13.50;8.80;;;;;;;14.95;80.05;97464.23;234411;215;149223;-60
2023/10/25 09:01:24;;;;;;;14.40;8.20;;;;;;;14.87;79.62;97466.61;234339;215;139429;-60
2023/10/25 09:06:27;;;;;;;12.80;8.30;;;;;;;14.82;79.91;97468.57;234426;215;138393;-60
2023/10/25 09:11:45;;;;;;;13.20;8.80;;;;;;;14.82;79.78;97469.50;234597;215;149177;-60
2023/10/25 09:16:49;;;;;;;15.30;9.60;;;;;;;14.74;79.97;97470.50;234441;214;138888;-60
2023/10/25 09:21:53;;;;;;;10.40;7.60;;;;;;;14.69;80.12;97472.58;234500;214;137178;-61
2023/10/25 09:26:58;;;;;;;11.80;7.70;;;;;;;14.67;80.15;97472.66;234286;214;150764;-60
2023/10/25 09:32:06;;;;;;;10.10;7.40;;;;;;;14.71;80.02;97478.89;233542;215;141240;-61
2023/10/25 09:37:09;;;;;;;9.00;7.70;;;;;;;14.74;79.82;97484.63;234441;215;137634;-61
2023/10/25 09:42:14;;;;;;;11.30;7.80;;;;;;;14.73;79.74;97488.10;234293;214;150677;-60
2023/10/25 09:47:18;;;;;;;12.10;8.00;;;;;;;14.69;79.56;97492.51;234175;215;138271;-61
2023/10/25 09:52:27;;;;;;;14.20;9.20;;;;;;;14.66;79.58;97498.61;234524;215;137835;-61
2023/10/25 09:57:32;;;;;;;13.80;9.70;;;;;;;14.70;79.61;97491.64;234317;215;149857;-61
2023/10/25 10:02:49;;;;;;;15.60;9.60;;;;;;;14.74;79.41;97493.90;234357;214;138404;-61
2023/10/25 10:08:05;;;;;;;15.50;8.50;;;;;;;14.72;79.11;97500.52;233992;214;140363;-61
2023/10/25 10:13:17;;;;;;;16.40;8.80;;;;;;;14.76;79.10;97497.80;234067;214;149237;-60
2023/10/25 10:18:21;;;;;;;14.80;8.70;;;;;;;14.80;78.70;97496.98;234369;215;139696;-59
2023/10/25 10:23:36;;;;;;;12.30;8.60;;;;;;;14.84;78.15;97509.33;234489;214;137603;-59
2023/10/25 10:28:47;;;;;;;14.90;8.30;;;;;;;14.78;78.36;97510.30;234021;215;151047;-58
2023/10/25 10:33:51;;;;;;;12.60;7.20;;;;;;;14.75;78.11;97514.30;234415;215;138783;-56
2023/10/25 10:39:16;;;;;;;14.70;8.30;;;;;;;14.76;78.13;97515.30;234336;215;138258;-58
2023/10/25 10:44:20;;;;;;;14.50;10.60;;;;;;;14.82;78.29;97515.77;234353;214;149402;-56
2023/10/25 10:49:29;;;;;;;10.70;7.80;;;;;;;14.82;77.82;97515.52;234406;214;140357;-57
2023/10/25 10:54:32;;;;;;;10.70;6.90;;;;;;;14.80;77.82;97518.58;234364;215;137777;-57
2023/10/25 10:59:35;;;;;;;10.50;6.40;;;;;;;14.82;77.73;97525.41;234459;215;151326;-63
2023/10/25 11:04:42;;;;;;;10.80;6.90;;;;;;;14.81;77.43;97530.07;233985;215;139846;-57
2023/10/25 11:09:46;;;;;;;10.20;7.00;;;;;;;14.82;77.31;97535.48;234249;214;137609;-58
2023/10/25 11:14:49;;;;;;;16.20;7.80;;;;;;;14.85;77.45;97528.75;234268;215;149928;-51
2023/10/25 11:19:53;;;;;;;9.70;6.00;;;;;;;15.00;77.77;97538.66;234316;215;139183;-57
2023/10/25 11:24:58;;;;;;;8.00;5.70;;;;;;;15.04;76.90;97538.05;234031;215;138175;-56
2023/10/25 11:30:04;;;;;;;6.90;5.60;;;;;;;14.96;76.63;97544.45;234393;215;151073;-57
2023/10/25 11:35:23;;;;;;;16.40;10.40;;;;;;;14.95;76.49;97545.84;234133;215;140510;-57
2023/10/25 11:40:39;;;;;;;10.90;5.00;;;;;;;14.95;76.49;97551.73;233893;214;137866;-57
2023/10/25 11:45:43;;;;;;;8.20;4.70;;;;;;;14.97;76.56;97554.35;233893;214;149799;-57
2023/10/25 11:50:46;;;;;;;8.90;4.70;;;;;;;15.01;76.62;97557.69;234206;215;138738;-58
2023/10/25 11:55:50;;;;;;;6.10;3.90;;;;;;;15.06;76.55;97563.10;234389;215;139573;-58
2023/10/25 12:00:53;;;;;;;5.40;3.60;;;;;;;15.07;76.61;97578.15;234308;215;150248;-58
2023/10/25 12:05:56;;;;;;;3.80;3.40;;;;;;;15.08;76.41;97580.67;233747;214;140314;-56
2023/10/25 12:10:59;;;;;;;5.40;3.30;;;;;;;15.08;76.56;97585.20;234426;214;137472;-59
2023/10/25 12:16:03;;;;;;;5.20;3.30;;;;;;;15.09;76.76;97583.25;234077;214;149378;-56
2023/10/25 12:21:08;;;;;;;5.40;3.30;;;;;;;15.16;76.84;97579.51;234149;214;139224;-56
2023/10/25 12:26:11;;;;;;;32.20;23.40;;;;;;;15.22;76.72;97583.35;234345;215;140770;-57
2023/10/25 12:31:14;;;;;;;5.20;3.40;;;;;;;15.26;76.66;97583.53;234146;214;150804;-56
2023/10/25 12:36:17;;;;;;;3.60;2.60;;;;;;;15.17;76.55;97578.34;233720;215;140424;-56
2023/10/25 12:41:21;;;;;;;5.30;2.90;;;;;;;15.13;76.75;97573.05;234069;215;139313;-56
2023/10/25 12:46:24;;;;;;;6.70;2.90;;;;;;;15.16;76.89;97570.63;234410;215;150859;-59
2023/10/25 12:51:27;;;;;;;4.60;3.10;;;;;;;15.22;76.80;97571.77;234343;214;138963;-58
2023/10/25 12:56:31;;;;;;;5.30;3.40;;;;;;;15.23;76.58;97578.98;234363;215;137353;-57
2023/10/25 13:01:34;;;;;;;6.40;3.00;;;;;;;15.20;76.68;97575.30;234352;215;150036;-58
2023/10/25 13:06:38;;;;;;;3.20;2.70;;;;;;;15.19;76.56;97583.34;233746;214;139620;-58
2023/10/25 13:11:42;;;;;;;6.70;3.20;;;;;;;15.21;76.52;97586.46;234358;215;137584;-56
2023/10/25 13:16:46;;;;;;;3.80;2.80;;;;;;;15.23;76.24;97592.34;234278;215;149892;-58
2023/10/25 13:21:49;;;;;;;5.30;2.80;;;;;;;15.15;75.99;97589.98;234339;215;140439;-57
2023/10/25 13:26:52;;;;;;;3.50;2.90;;;;;;;15.12;76.22;97583.58;233754;215;137346;-58
2023/10/25 13:31:55;;;;;;;4.30;3.30;;;;;;;15.10;76.20;97587.09;234262;215;150077;-58
2023/10/25 13:36:58;;;;;;;3.50;2.70;;;;;;;15.14;76.00;97587.47;234327;214;141755;-59
2023/10/25 13:42:02;;;;;;;3.90;2.50;;;;;;;15.26;75.67;97584.23;234487;215;139516;-57
2023/10/25 13:47:05;;;;;;;3.80;2.90;;;;;;;15.41;75.21;97581.90;234387;215;149971;-54
2023/10/25 13:52:08;;;;;;;4.60;3.10;;;;;;;15.53;74.67;97575.80;234203;215;138912;-56
2023/10/25 13:57:12;;;;;;;5.70;3.40;;;;;;;15.53;74.19;97565.31;234382;215;137817;-52
2023/10/25 14:02:15;;;;;;;6.20;3.50;;;;;;;15.51;73.93;97568.13;233984;215;149902;-53
2023/10/25 14:07:18;;;;;;;5.90;4.00;;;;;;;15.53;73.70;97572.25;234391;215;139434;-56
2023/10/25 14:12:22;;;;;;;5.60;3.30;;;;;;;15.58;73.30;97587.78;234353;215;139162;-54
2023/10/25 14:17:25;;;;;;;9.50;4.10;;;;;;;15.63;72.91;97590.83;234416;215;149691;-54
2023/10/25 14:22:28;;;;;;;5.80;3.60;;;;;;;15.67;72.27;97589.41;234012;215;138878;-52
2023/10/25 14:27:33;;;;;;;7.90;3.30;;;;;;;15.62;71.60;97591.29;233970;215;137911;-52
2023/10/25 14:32:37;;;;;;;6.50;2.90;;;;;;;15.50;71.30;97595.77;234320;215;149505;-58
2023/10/25 14:37:41;;;;;;;4.80;2.90;;;;;;;15.47;71.48;97597.06;233120;214;139610;-55
2023/10/25 14:42:44;;;;;;;8.60;3.30;;;;;;;15.41;71.23;97602.27;234439;214;137410;-59
2023/10/25 14:47:47;;;;;;;16.40;7.00;;;;;;;15.38;71.62;97598.27;234461;214;149167;-55
2023/10/25 14:52:51;;;;;;;8.20;3.60;;;;;;;15.43;71.20;97599.29;234465;214;140050;-57
2023/10/25 14:57:56;;;;;;;5.90;3.60;;;;;;;15.43;71.26;97597.66;233260;214;138068;-55
2023/10/25 15:03:00;;;;;;;7.60;3.70;;;;;;;15.40;71.19;97596.84;233565;215;149512;-55
2023/10/25 15:08:04;;;;;;;7.70;3.70;;;;;;;15.35;71.17;97590.31;234036;215;138732;-53
2023/10/25 15:13:07;;;;;;;10.90;3.50;;;;;;;15.28;71.20;97587.94;233890;215;137650;-56
2023/10/25 15:18:10;;;;;;;6.40;3.70;;;;;;;15.20;71.42;97578.95;234141;214;150765;-56
2023/10/25 15:23:14;;;;;;;8.60;3.20;;;;;;;15.13;71.56;97570.55;233634;214;139011;-55
2023/10/25 15:28:17;;;;;;;7.90;3.20;;;;;;;15.08;71.95;97561.80;234116;214;139633;-54
2023/10/25 15:33:20;;;;;;;102.10;69.60;;;;;;;15.04;72.33;97551.48;233672;214;149298;-56
2023/10/25 15:38:24;;;;;;;8.10;4.30;;;;;;;15.07;72.19;97545.46;233833;215;138834;-55
2023/10/25 15:43:27;;;;;;;27.50;17.70;;;;;;;14.98;73.53;97538.86;234461;215;137706;-56
2023/10/25 15:48:30;;;;;;;6.50;3.70;;;;;;;15.64;77.69;97536.61;234379;214;150265;-57
2023/10/25 15:53:34;;;;;;;6.80;4.00;;;;;;;15.59;72.22;97539.77;234409;214;139632;-58
2023/10/25 15:58:37;;;;;;;11.60;4.80;;;;;;;15.31;71.89;97546.20;234369;214;138028;-58
2023/10/25 16:03:42;;;;;;;8.80;4.00;;;;;;;15.04;72.00;97552.55;234451;215;149443;-59
2023/10/25 16:08:46;;;;;;;12.30;3.70;;;;;;;14.79;72.27;97557.88;234344;215;138647;-56
2023/10/25 16:13:50;;;;;;;6.30;3.90;;;;;;;14.59;72.95;97558.77;234493;215;140332;-57
2023/10/25 16:18:53;;;;;;;9.00;4.50;;;;;;;14.44;73.38;97562.95;234334;214;150303;-58
2023/10/25 16:23:56;;;;;;;17.30;4.50;;;;;;;14.36;73.95;97570.02;234397;214;139854;-57
2023/10/25 16:29:00;;;;;;;15.30;4.90;;;;;;;14.34;74.33;97573.78;234470;214;138713;-58
2023/10/25 16:34:03;;;;;;;14.80;4.80;;;;;;;14.31;74.52;97572.89;234356;214;149275;-58
2023/10/25 16:39:07;;;;;;;16.20;5.60;;;;;;;14.29;74.86;97583.61;234410;214;138733;-58
2023/10/25 16:44:10;;;;;;;18.60;5.90;;;;;;;14.35;75.22;97587.56;234143;214;138029;-58
2023/10/25 16:49:13;;;;;;;18.30;5.90;;;;;;;14.41;75.30;97584.12;234392;214;150233;-58
2023/10/25 16:54:16;;;;;;;13.70;5.80;;;;;;;14.41;75.51;97583.11;234225;214;138869;-58
2023/10/25 16:59:20;;;;;;;13.10;5.40;;;;;;;14.44;75.55;97577.61;233730;213;138784;-59
2023/10/25 17:04:23;;;;;;;18.00;5.90;;;;;;;14.42;75.53;97574.17;234204;215;149859;-60
2023/10/25 17:09:27;;;;;;;13.60;6.10;;;;;;;14.44;75.50;97576.00;234248;215;139181;-60
2023/10/25 17:14:30;;;;;;;38.50;19.10;;;;;;;14.41;75.81;97571.27;234253;215;137201;-59
2023/10/25 17:19:33;;;;;;;13.00;6.90;;;;;;;14.38;75.34;97567.01;233911;215;148520;-60
2023/10/25 17:24:37;;;;;;;15.60;6.90;;;;;;;14.22;75.21;97565.55;233986;214;139024;-57
2023/10/25 17:29:40;;;;;;;12.80;6.00;;;;;;;14.07;75.29;97556.03;233714;214;138091;-59
2023/10/25 17:34:44;;;;;;;19.30;5.80;;;;;;;13.92;75.62;97547.19;234379;212;150483;-58
2023/10/25 17:39:48;;;;;;;15.20;6.10;;;;;;;13.88;75.75;97542.71;234312;215;139487;-58
2023/10/25 17:44:51;;;;;;;13.30;6.40;;;;;;;13.84;75.80;97529.04;234305;215;138126;-59
2023/10/25 17:49:55;;;;;;;15.20;6.40;;;;;;;13.83;75.66;97520.10;234356;215;149597;-59
2023/10/25 17:54:59;;;;;;;18.50;6.60;;;;;;;13.74;75.49;97517.94;234129;215;140591;-62
2023/10/25 18:00:02;;;;;;;17.10;6.60;;;;;;;13.66;75.48;97517.70;234262;214;137211;-58
2023/10/25 18:05:06;;;;;;;17.50;6.20;;;;;;;13.55;75.45;97518.13;234141;215;149276;-59
2023/10/25 18:10:10;;;;;;;27.20;6.80;;;;;;;13.46;75.52;97511.77;234332;214;139055;-59
2023/10/25 18:15:14;;;;;;;17.20;7.10;;;;;;;13.44;75.64;97506.28;233443;214;137988;-58
2023/10/25 18:20:17;;;;;;;23.70;7.60;;;;;;;13.42;75.39;97502.61;234342;214;149385;-58
2023/10/25 18:25:25;;;;;;;27.90;8.60;;;;;;;13.36;75.34;97499.75;234390;214;139890;-58
2023/10/25 18:30:29;;;;;;;18.50;8.00;;;;;;;13.30;75.34;97494.53;233606;215;138482;-59
2023/10/25 18:35:52;;;;;;;23.90;8.00;;;;;;;13.15;75.57;97494.14;234319;215;149535;-58
2023/10/25 18:40:56;;;;;;;24.70;7.30;;;;;;;13.04;75.72;97496.42;234354;215;139847;-57
2023/10/25 18:46:05;;;;;;;20.50;6.90;;;;;;;13.05;76.07;97498.19;234364;214;137889;-57
2023/10/25 18:51:12;;;;;;;15.00;8.30;;;;;;;13.07;75.70;97495.31;234343;214;150804;-58
2023/10/25 18:56:16;;;;;;;13.30;7.80;;;;;;;13.04;75.55;97492.94;234400;214;140061;-56
2023/10/25 19:01:20;;;;;;;134.60;96.40;;;;;;;13.06;76.40;97492.30;233940;215;137772;-58
2023/10/25 19:06:23;;;;;;;19.10;8.80;;;;;;;13.10;75.86;97492.36;233347;214;150322;-58
2023/10/25 19:11:41;;;;;;;14.30;8.00;;;;;;;12.95;75.32;97495.70;233803;215;138912;-58
2023/10/25 19:16:47;;;;;;;15.80;7.70;;;;;;;12.85;75.40;97499.35;233379;212;137735;-57
2023/10/25 19:21:51;;;;;;;17.30;7.80;;;;;;;12.77;75.28;97501.89;233303;215;150840;-59
2023/10/25 19:26:55;;;;;;;15.40;7.40;;;;;;;12.74;75.26;97499.55;234026;214;138843;-58
2023/10/25 19:31:58;;;;;;;20.10;8.70;;;;;;;12.71;75.22;97504.41;234092;214;139388;-56
2023/10/25 19:37:02;;;;;;;22.00;8.70;;;;;;;12.66;75.03;97502.77;233579;214;150874;-58
2023/10/25 19:42:06;;;;;;;26.40;9.50;;;;;;;12.58;74.95;97502.67;234043;214;139026;-57
2023/10/25 19:47:09;;;;;;;30.80;9.60;;;;;;;12.48;75.08;97505.92;233838;215;137285;-57
2023/10/25 19:52:13;;;;;;;34.60;12.30;;;;;;;12.42;75.47;97502.94;234257;215;150738;-59
2023/10/25 19:57:16;;;;;;;27.00;11.40;;;;;;;12.43;74.92;97491.67;234176;214;139745;-56
2023/10/25 20:02:20;;;;;;;28.70;11.70;;;;;;;12.37;74.57;97491.85;234119;215;138617;-57
2023/10/25 20:07:23;;;;;;;29.30;13.00;;;;;;;12.31;74.61;97495.94;234284;214;149337;-55
2023/10/25 20:12:30;;;;;;;29.90;12.20;;;;;;;12.26;74.46;97498.91;234315;214;140076;-55
2023/10/25 20:17:33;;;;;;;23.40;12.00;;;;;;;12.15;74.30;97494.57;234546;215;139178;-56
2023/10/25 20:22:36;;;;;;;24.70;11.90;;;;;;;12.03;74.35;97489.66;234444;212;150000;-57
2023/10/25 20:27:40;;;;;;;26.00;11.90;;;;;;;11.95;74.54;97490.45;234067;214;140605;-57
2023/10/25 20:32:44;;;;;;;26.90;12.20;;;;;;;11.88;74.65;97492.11;233437;213;139719;-57
2023/10/25 20:37:47;;;;;;;28.20;11.00;;;;;;;11.83;74.58;97490.41;233898;214;151293;-57
2023/10/25 20:42:50;;;;;;;25.90;12.90;;;;;;;11.81;74.71;97487.06;234282;214;140651;-57
2023/10/25 20:47:53;;;;;;;24.00;16.20;;;;;;;11.78;75.03;97485.76;234409;214;137055;-55
2023/10/25 20:52:56;;;;;;;25.00;15.00;;;;;;;11.74;75.27;97489.28;234375;214;149043;-56
2023/10/25 20:57:59;;;;;;;22.60;13.30;;;;;;;11.70;75.33;97491.29;233939;214;139284;-57
2023/10/25 21:03:03;;;;;;;22.90;13.70;;;;;;;11.62;74.93;97486.83;234317;214;137951;-57
2023/10/25 21:08:07;;;;;;;32.50;15.40;;;;;;;11.48;74.70;97482.06;234361;214;149358;-56
2023/10/25 21:13:11;;;;;;;28.00;15.60;;;;;;;11.38;74.86;97484.55;234376;215;139385;-57
2023/10/25 21:18:14;;;;;;;23.80;14.90;;;;;;;11.33;74.93;97483.98;234535;215;139346;-56
2023/10/25 21:23:18;;;;;;;25.10;16.10;;;;;;;11.33;75.01;97485.58;234343;214;150276;-57
2023/10/25 21:28:21;;;;;;;30.60;16.20;;;;;;;11.32;74.86;97474.30;234311;215;140783;-57
2023/10/25 21:33:24;;;;;;;22.80;16.00;;;;;;;11.32;74.95;97471.64;234514;215;137694;-55
2023/10/25 21:38:27;;;;;;;27.80;16.30;;;;;;;11.33;74.83;97471.89;234038;214;149315;-58
2023/10/25 21:43:31;;;;;;;20.90;15.10;;;;;;;11.26;74.76;97472.51;234156;214;138773;-57
2023/10/25 21:48:34;;;;;;;26.90;16.50;;;;;;;11.17;75.04;97476.59;233768;215;137263;-57
2023/10/25 21:53:38;;;;;;;24.10;14.20;;;;;;;11.08;75.20;97469.48;234481;215;150022;-57
2023/10/25 21:58:41;;;;;;;20.10;14.00;;;;;;;11.10;75.28;97462.58;234295;214;139433;-57
2023/10/25 22:04:07;;;;;;;28.50;15.80;;;;;;;11.26;74.96;97464.02;233397;207;138592;-56
2023/10/25 22:09:13;;;;;;;28.70;16.30;;;;;;;11.30;74.50;97454.55;233784;215;149200;-56
2023/10/25 22:14:17;;;;;;;21.20;15.30;;;;;;;11.30;74.28;97448.20;233904;215;140475;-57
2023/10/25 22:19:20;;;;;;;24.60;15.90;;;;;;;11.30;74.21;97438.98;234376;215;137397;-58
2023/10/25 22:24:23;;;;;;;22.90;16.00;;;;;;;11.30;73.89;97431.86;233713;214;150600;-59
2023/10/25 22:29:27;;;;;;;19.70;14.00;;;;;;;11.28;73.64;97430.06;233568;215;139886;-57
2023/10/25 22:34:30;;;;;;;20.10;13.30;;;;;;;11.21;73.84;97423.83;234338;215;138175;-57
2023/10/25 22:39:33;;;;;;;23.90;13.90;;;;;;;11.19;73.58;97419.55;234385;214;149127;-56
2023/10/25 22:44:36;;;;;;;17.60;13.60;;;;;;;11.17;73.62;97416.57;234435;214;139922;-56
2023/10/25 22:49:39;;;;;;;19.50;13.90;;;;;;;11.12;73.71;97415.37;234416;215;137926;-56
2023/10/25 22:54:43;;;;;;;21.80;14.60;;;;;;;11.06;74.17;97407.63;234434;214;150615;-55
2023/10/25 22:59:46;;;;;;;20.00;14.30;;;;;;;10.96;74.37;97403.17;234476;214;138546;-56
2023/10/25 23:04:49;;;;;;;22.20;15.50;;;;;;;10.86;74.36;97396.81;234005;214;141313;-54
2023/10/25 23:09:52;;;;;;;19.10;14.90;;;;;;;10.77;74.35;97394.05;234186;215;149305;-59
2023/10/25 23:14:56;;;;;;;20.80;14.20;;;;;;;10.64;74.43;97393.09;234285;215;138945;-56
2023/10/25 23:19:59;;;;;;;18.80;14.50;;;;;;;10.56;74.73;97384.75;234238;215;138395;-56